Gurli — SLEG — position and weather

sailwx.info

Track history (hours):
 
Tides and Currents Weather Stations Pressure Air Temp Water Temp Dewpoint Dewpoint Depression Visibility Wind Speed Wind Dir Waves Ship Positions

Gurli

Last reported at 2017-Apr-30 04:58 UTC. Time now 2017-Apr-30 05:19 UTC.
Position N 59°20' E 018°05'.

Length 21 m.

Type: Passenger vessel. MMSI: 265687640.

Date/timePositionNaut miles runAvg speedWind from/ knotsBaromVisibWave heightAir tempDewpointWater temp
2017-Apr-30 04:58N 59°20' E 018°05'0 0.0
2017-Apr-30 04:28N 59°20' E 018°05'0 0.0
2017-Apr-30 03:58N 59°20' E 018°05'0 0.0
2017-Apr-30 03:28N 59°20' E 018°05'0 0.0
2017-Apr-30 02:58N 59°20' E 018°05'0 0.0
2017-Apr-30 02:28N 59°20' E 018°05'0 0.0
2017-Apr-30 01:58N 59°20' E 018°05'0 0.0
2017-Apr-30 01:28N 59°20' E 018°05'0 0.0
2017-Apr-30 00:58N 59°20' E 018°05'0 0.0
2017-Apr-30 00:28N 59°20' E 018°05'0 0.0
2017-Apr-29 23:58N 59°20' E 018°05'0 0.0
2017-Apr-29 23:28N 59°20' E 018°05'0 0.0
2017-Apr-29 22:58N 59°20' E 018°05'0 0.0
2017-Apr-29 22:28N 59°20' E 018°05'0 0.0
2017-Apr-29 21:58N 59°20' E 018°05'0 0.0
2017-Apr-29 21:28N 59°20' E 018°05'0 0.0
2017-Apr-29 20:58N 59°20' E 018°05'0 0.0
2017-Apr-29 20:28N 59°20' E 018°05'0 0.0
2017-Apr-29 19:58N 59°20' E 018°05'0 0.0
2017-Apr-29 19:28N 59°20' E 018°05'0 0.0
2017-Apr-29 18:55N 59°20' E 018°05'0 0.0
2017-Apr-29 18:26N 59°20' E 018°05'0 0.0
2017-Apr-29 17:58N 59°20' E 018°05'0 0.0
2017-Apr-29 17:26N 59°20' E 018°05'0 0.0
2017-Apr-29 16:50N 59°20' E 018°05'0 0.0
2017-Apr-29 16:26N 59°20' E 018°05'0 0.0
2017-Apr-29 15:56N 59°20' E 018°05'0 0.0
2017-Apr-29 15:25N 59°20' E 018°05'1 2.9
2017-Apr-29 15:00N 59°19' E 018°07'2 3.7
2017-Apr-29 14:30N 59°21' E 018°09'2 2.4
2017-Apr-29 13:31N 59°20' E 018°05'2 4.0
2017-Apr-29 13:01N 59°19' E 018°08'2 3.9
2017-Apr-29 12:30N 59°20' E 018°05'2 3.6
2017-Apr-29 12:00N 59°19' E 018°08'2 3.5
2017-Apr-29 11:30N 59°21' E 018°09'2 3.5
2017-Apr-29 11:00N 59°19' E 018°08'2 3.5
2017-Apr-29 10:30N 59°20' E 018°05'0 0.4
2017-Apr-29 10:00N 59°20' E 018°05'2 3.1
2017-Apr-29 09:30N 59°19' E 018°07'1 2.4
2017-Apr-29 09:00N 59°20' E 018°05'1 2.0
2017-Apr-29 08:30N 59°19' E 018°07'2 3.4
2017-Apr-29 07:59N 59°21' E 018°09'2 3.5
2017-Apr-29 07:30N 59°19' E 018°08'2 3.6
2017-Apr-29 07:00N 59°20' E 018°05'0 0.3
2017-Apr-29 06:29N 59°20' E 018°05'0 0.0
2017-Apr-29 05:59N 59°20' E 018°05'0 0.0
2017-Apr-29 05:29N 59°20' E 018°05'0 0.0
2017-Apr-29 04:59N 59°20' E 018°05'0 0.0
2017-Apr-29 04:29N 59°20' E 018°05'0 0.0
2017-Apr-29 03:59N 59°20' E 018°05'0 0.0
2017-Apr-29 03:29N 59°20' E 018°05'0 0.0
2017-Apr-29 02:59N 59°20' E 018°05'0 0.0
2017-Apr-29 02:26N 59°20' E 018°05'0 0.0
2017-Apr-29 01:59N 59°20' E 018°05'0 0.0
2017-Apr-29 01:29N 59°20' E 018°05'0 0.0
2017-Apr-29 00:59N 59°20' E 018°05'0 0.0
2017-Apr-29 00:29N 59°20' E 018°05'0 0.0
2017-Apr-28 23:59N 59°20' E 018°05'0 0.0
2017-Apr-28 23:29N 59°20' E 018°05'0 0.0
2017-Apr-28 22:59N 59°20' E 018°05'0 0.0
2017-Apr-28 22:29N 59°20' E 018°05'0 0.0
2017-Apr-28 21:59N 59°20' E 018°05'0 0.0
2017-Apr-28 21:29N 59°20' E 018°05'0 0.0
2017-Apr-28 20:59N 59°20' E 018°05'0 0.0
2017-Apr-28 20:29N 59°20' E 018°05'0 0.0
2017-Apr-28 19:59N 59°20' E 018°05'0 0.2
2017-Apr-28 19:30N 59°20' E 018°05'2 3.8
2017-Apr-28 19:00N 59°19' E 018°08'1 2.6
2017-Apr-28 18:28N 59°19' E 018°06'0 0.9
2017-Apr-28 18:00N 59°19' E 018°06'1 2.3
2017-Apr-28 17:29N 59°19' E 018°08'2 4.2
2017-Apr-28 16:59N 59°20' E 018°05'2 3.9
2017-Apr-28 16:28N 59°19' E 018°08'2 3.4
2017-Apr-28 15:59N 59°21' E 018°08'2 3.1
2017-Apr-28 15:28N 59°19' E 018°08'2 4.1
2017-Apr-28 14:58N 59°20' E 018°05'2 2.4
2017-Apr-28 14:00N 59°21' E 018°09'1 2.9
2017-Apr-28 13:30N 59°19' E 018°09'2 4.4
2017-Apr-28 12:59N 59°20' E 018°05'0 0.5
2017-Apr-28 12:28N 59°20' E 018°05'0 0.0
2017-Apr-28 11:58N 59°20' E 018°05'0 0.0
2017-Apr-28 11:28N 59°20' E 018°05'1 2.7
2017-Apr-28 11:00N 59°19' E 018°07'0 0.6
2017-Apr-28 10:30N 59°19' E 018°07'2 3.1
2017-Apr-28 10:00N 59°20' E 018°05'2 4.5
2017-Apr-28 09:29N 59°19' E 018°09'1 3.1
2017-Apr-28 09:00N 59°21' E 018°09'2 3.5
2017-Apr-28 08:30N 59°19' E 018°07'2 3.4
2017-Apr-28 08:00N 59°20' E 018°05'2 3.2
2017-Apr-28 07:30N 59°19' E 018°07'2 3.5
2017-Apr-28 07:00N 59°21' E 018°09'2 3.1
2017-Apr-28 06:29N 59°19' E 018°10'3 5.3
2017-Apr-28 05:59N 59°20' E 018°05'3 5.3
2017-Apr-28 05:30N 59°19' E 018°09'1 2.9
2017-Apr-28 05:00N 59°21' E 018°09'2 3.6
2017-Apr-28 04:31N 59°19' E 018°07'2 2.9
2017-Apr-28 03:59N 59°20' E 018°05'0 0.1
2017-Apr-28 03:24N 59°20' E 018°05'0 0.0
2017-Apr-28 03:00N 59°20' E 018°05'0 0.0
2017-Apr-28 02:30N 59°20' E 018°05'0 0.0
2017-Apr-28 02:00N 59°20' E 018°05'0 0.0
2017-Apr-28 01:30N 59°20' E 018°05'0 0.0
2017-Apr-28 01:00N 59°20' E 018°05'0 0.0
2017-Apr-28 00:30N 59°20' E 018°05'0 0.0
2017-Apr-28 00:00N 59°20' E 018°05'0 0.0
2017-Apr-27 23:30N 59°20' E 018°05'0 0.0
2017-Apr-27 23:00N 59°20' E 018°05'0 0.0
2017-Apr-27 22:30N 59°20' E 018°05'0 0.0
2017-Apr-27 22:00N 59°20' E 018°05'0 0.0
2017-Apr-27 21:30N 59°20' E 018°05'0 0.0
2017-Apr-27 21:00N 59°20' E 018°05'0 0.0
2017-Apr-27 20:30N 59°20' E 018°05'0 0.0
2017-Apr-27 20:00N 59°20' E 018°05'0 0.0
2017-Apr-27 19:30N 59°20' E 018°05'2 3.8
2017-Apr-27 19:00N 59°19' E 018°08'1 2.6
2017-Apr-27 18:30N 59°19' E 018°06'0 0.2
2017-Apr-27 18:00N 59°19' E 018°06'1 2.6
2017-Apr-27 17:29N 59°19' E 018°09'2 4.5
2017-Apr-27 17:00N 59°20' E 018°05'2 4.0
2017-Apr-27 16:30N 59°19' E 018°08'2 3.2
2017-Apr-27 16:00N 59°21' E 018°08'2 3.1
2017-Apr-27 15:30N 59°19' E 018°09'2 4.5
2017-Apr-27 14:59N 59°20' E 018°05'2 2.4
2017-Apr-27 14:00N 59°21' E 018°09'1 2.9
2017-Apr-27 13:29N 59°19' E 018°09'2 4.9
2017-Apr-27 13:00N 59°20' E 018°05'0 0.5
2017-Apr-27 12:30N 59°20' E 018°05'0 0.0
2017-Apr-27 12:00N 59°20' E 018°05'0 0.0
2017-Apr-27 11:30N 59°20' E 018°05'2 3.1
2017-Apr-27 11:00N 59°19' E 018°07'0 0.5
2017-Apr-27 10:30N 59°19' E 018°07'1 2.4
2017-Apr-27 10:00N 59°20' E 018°05'2 4.2
2017-Apr-27 09:30N 59°19' E 018°09'1 2.9
2017-Apr-27 09:01N 59°21' E 018°08'2 3.5
2017-Apr-27 08:30N 59°19' E 018°07'2 3.3
2017-Apr-27 07:59N 59°20' E 018°05'2 3.6
2017-Apr-27 07:30N 59°19' E 018°07'2 3.4
2017-Apr-27 06:59N 59°21' E 018°08'2 3.2
2017-Apr-27 06:29N 59°19' E 018°09'3 5.0
2017-Apr-27 05:58N 59°20' E 018°05'2 5.0
2017-Apr-27 05:30N 59°19' E 018°09'2 3.1
2017-Apr-27 05:00N 59°21' E 018°09'2 3.3
2017-Apr-27 04:30N 59°19' E 018°08'2 3.1
2017-Apr-27 03:58N 59°20' E 018°05'0 0.0
2017-Apr-27 03:28N 59°20' E 018°05'0 0.0
2017-Apr-27 02:58N 59°20' E 018°05'0 0.0
2017-Apr-27 02:28N 59°20' E 018°05'0 0.0
2017-Apr-27 01:58N 59°20' E 018°05'0 0.0
2017-Apr-27 01:28N 59°20' E 018°05'0 0.0
2017-Apr-27 00:58N 59°20' E 018°05'0 0.0
2017-Apr-27 00:28N 59°20' E 018°05'0 0.0
2017-Apr-26 23:58N 59°20' E 018°05'0 0.0
2017-Apr-26 23:28N 59°20' E 018°05'0 0.0
2017-Apr-26 22:58N 59°20' E 018°05'0 0.0
2017-Apr-26 22:28N 59°20' E 018°05'0 0.0
2017-Apr-26 21:58N 59°20' E 018°05'0 0.0
2017-Apr-26 21:28N 59°20' E 018°05'0 0.0
2017-Apr-26 20:58N 59°20' E 018°05'0 0.0
2017-Apr-26 20:28N 59°20' E 018°05'0 0.0
2017-Apr-26 19:58N 59°20' E 018°05'0 0.0
2017-Apr-26 19:30N 59°20' E 018°05'2 3.7
2017-Apr-26 19:00N 59°19' E 018°08'1 2.4
2017-Apr-26 18:30N 59°19' E 018°06'0 0.1
2017-Apr-26 18:00N 59°19' E 018°06'2 3.5
2017-Apr-26 17:30N 59°19' E 018°09'2 4.6
2017-Apr-26 16:59N 59°20' E 018°05'2 3.7
2017-Apr-26 16:30N 59°19' E 018°08'2 3.3
2017-Apr-26 16:00N 59°21' E 018°08'2 3.0
2017-Apr-26 15:30N 59°19' E 018°09'2 3.8
2017-Apr-26 14:55N 59°20' E 018°05'2 3.7
2017-Apr-26 14:31N 59°19' E 018°07'1 1.1
2017-Apr-26 13:30N 59°19' E 018°09'2 4.7
2017-Apr-26 12:59N 59°20' E 018°05'0 0.5
2017-Apr-26 12:28N 59°20' E 018°05'0 0.0
2017-Apr-26 11:58N 59°20' E 018°05'0 0.0
2017-Apr-26 11:25N 59°20' E 018°05'0 0.0
2017-Apr-26 10:58N 59°20' E 018°05'0 0.0
2017-Apr-26 10:28N 59°20' E 018°05'0 0.0
2017-Apr-26 09:58N 59°20' E 018°05'0 0.0
2017-Apr-26 09:28N 59°20' E 018°05'0 0.0
2017-Apr-26 08:58N 59°20' E 018°05'0 0.0
2017-Apr-26 08:28N 59°20' E 018°05'0 0.0
2017-Apr-26 07:58N 59°20' E 018°05'0 0.1
2017-Apr-26 07:30N 59°20' E 018°05'2 3.0
2017-Apr-26 07:00N 59°19' E 018°07'2 3.4
2017-Apr-26 06:30N 59°21' E 018°08'2 3.4
2017-Apr-26 06:00N 59°19' E 018°09'3 5.2
2017-Apr-26 05:30N 59°20' E 018°05'2 4.2
2017-Apr-26 05:00N 59°19' E 018°08'2 4.1
2017-Apr-26 04:30N 59°20' E 018°05'0 0.4
2017-Apr-26 03:58N 59°20' E 018°05'0 0.0
2017-Apr-26 03:28N 59°20' E 018°05'0 0.0
2017-Apr-26 02:58N 59°20' E 018°05'0 0.0
2017-Apr-26 02:28N 59°20' E 018°05'0 0.0
2017-Apr-26 01:58N 59°20' E 018°05'0 0.0
2017-Apr-26 01:28N 59°20' E 018°05'0 0.0
2017-Apr-26 00:58N 59°20' E 018°05'0 0.0
2017-Apr-26 00:28N 59°20' E 018°05'0 0.0
2017-Apr-25 23:58N 59°20' E 018°05'0 0.0
2017-Apr-25 23:28N 59°20' E 018°05'0 0.0
2017-Apr-25 22:58N 59°20' E 018°05'0 0.0
2017-Apr-25 22:28N 59°20' E 018°05'0 0.0
2017-Apr-25 21:58N 59°20' E 018°05'0 0.0
2017-Apr-25 21:28N 59°20' E 018°05'0 0.0
2017-Apr-25 20:58N 59°20' E 018°05'0 0.0
2017-Apr-25 20:28N 59°20' E 018°05'0 0.0
2017-Apr-25 19:58N 59°20' E 018°05'0 0.0
2017-Apr-25 19:30N 59°20' E 018°05'2 3.4
2017-Apr-25 19:00N 59°19' E 018°08'1 2.1
2017-Apr-25 18:30N 59°19' E 018°06'0 0.5
2017-Apr-25 18:00N 59°19' E 018°06'2 3.7
2017-Apr-25 17:29N 59°19' E 018°09'2 5.2
2017-Apr-25 17:01N 59°20' E 018°05'2 3.6
2017-Apr-25 16:29N 59°19' E 018°08'2 3.4
2017-Apr-25 16:00N 59°21' E 018°08'2 3.2
2017-Apr-25 15:30N 59°19' E 018°09'2 4.2
2017-Apr-25 14:57N 59°20' E 018°05'2 2.5
2017-Apr-25 14:00N 59°21' E 018°09'1 2.9
2017-Apr-25 13:30N 59°19' E 018°09'2 4.6
2017-Apr-25 12:59N 59°20' E 018°05'0 0.5
2017-Apr-25 12:28N 59°20' E 018°05'0 0.0
2017-Apr-25 11:58N 59°20' E 018°05'0 0.0
2017-Apr-25 11:28N 59°20' E 018°05'1 2.7
2017-Apr-25 11:00N 59°19' E 018°07'0 0.7
2017-Apr-25 10:30N 59°19' E 018°07'2 3.5
2017-Apr-25 10:00N 59°20' E 018°05'2 4.3
2017-Apr-25 09:30N 59°19' E 018°09'2 3.1
2017-Apr-25 09:00N 59°21' E 018°08'2 3.5
2017-Apr-25 08:30N 59°19' E 018°07'2 3.3
2017-Apr-25 07:59N 59°20' E 018°05'2 3.5
2017-Apr-25 07:30N 59°19' E 018°07'2 3.4
2017-Apr-25 07:00N 59°21' E 018°09'2 3.1
2017-Apr-25 06:30N 59°19' E 018°10'3 5.3
2017-Apr-25 06:00N 59°20' E 018°05'2 4.2
2017-Apr-25 05:30N 59°19' E 018°08'2 3.0
2017-Apr-25 04:59N 59°21' E 018°09'2 3.2
2017-Apr-25 04:29N 59°19' E 018°08'2 3.6
2017-Apr-25 04:00N 59°20' E 018°05'0 0.0
2017-Apr-25 03:29N 59°20' E 018°05'0 0.0
2017-Apr-25 02:59N 59°20' E 018°05'0 0.0
2017-Apr-25 02:29N 59°20' E 018°05'0 0.0
2017-Apr-25 01:58N 59°20' E 018°05'0 0.0
2017-Apr-25 01:29N 59°20' E 018°05'0 0.0
2017-Apr-25 00:59N 59°20' E 018°05'0 0.0
2017-Apr-25 00:28N 59°20' E 018°05'0 0.0
2017-Apr-24 23:59N 59°20' E 018°05'0 0.0
2017-Apr-24 23:29N 59°20' E 018°05'0 0.0
2017-Apr-24 22:58N 59°20' E 018°05'0 0.0
2017-Apr-24 22:29N 59°20' E 018°05'0 0.0
2017-Apr-24 21:58N 59°20' E 018°05'0 0.0
2017-Apr-24 21:29N 59°20' E 018°05'0 0.0
2017-Apr-24 20:59N 59°20' E 018°05'0 0.0
2017-Apr-24 20:28N 59°20' E 018°05'0 0.0
2017-Apr-24 19:59N 59°20' E 018°05'0 0.0
2017-Apr-24 19:30N 59°20' E 018°05'2 3.2
2017-Apr-24 18:59N 59°19' E 018°08'1 2.0
2017-Apr-24 18:30N 59°19' E 018°06'0 0.6
2017-Apr-24 17:58N 59°19' E 018°06'2 3.6
2017-Apr-24 17:29N 59°19' E 018°09'2 4.4
2017-Apr-24 16:56N 59°20' E 018°05'2 3.9
2017-Apr-24 16:30N 59°19' E 018°07'2 3.5
2017-Apr-24 15:59N 59°21' E 018°08'2 3.4
2017-Apr-24 15:30N 59°19' E 018°09'2 4.4
2017-Apr-24 14:59N 59°20' E 018°05'2 3.2
2017-Apr-24 14:29N 59°19' E 018°07'1 1.1
2017-Apr-24 13:30N 59°19' E 018°09'3 4.9
2017-Apr-24 12:59N 59°20' E 018°05'0 0.5
2017-Apr-24 12:29N 59°20' E 018°05'0 0.0
2017-Apr-24 11:59N 59°20' E 018°05'0 0.0
2017-Apr-24 11:29N 59°20' E 018°05'1 2.7
2017-Apr-24 11:00N 59°19' E 018°07'0 0.6
2017-Apr-24 10:30N 59°19' E 018°07'1 2.6
2017-Apr-24 10:00N 59°20' E 018°05'2 4.0
2017-Apr-24 09:30N 59°19' E 018°09'1 2.9
2017-Apr-24 09:00N 59°21' E 018°09'2 3.5
2017-Apr-24 08:30N 59°19' E 018°07'2 3.2
2017-Apr-24 07:58N 59°20' E 018°05'2 3.3
2017-Apr-24 07:31N 59°19' E 018°07'2 3.3
2017-Apr-24 07:00N 59°21' E 018°08'2 3.5
2017-Apr-24 06:30N 59°19' E 018°10'3 4.8
2017-Apr-24 05:57N 59°20' E 018°05'2 4.8
2017-Apr-24 05:30N 59°19' E 018°09'1 3.0
2017-Apr-24 05:00N 59°21' E 018°09'2 3.5
2017-Apr-24 04:30N 59°19' E 018°07'2 3.4
2017-Apr-24 04:00N 59°20' E 018°05'0 0.4
2017-Apr-24 03:29N 59°20' E 018°05'0 0.0
2017-Apr-24 02:59N 59°20' E 018°05'0 0.0
2017-Apr-24 02:29N 59°20' E 018°05'0 0.0
2017-Apr-24 01:59N 59°20' E 018°05'0 0.0
2017-Apr-24 01:29N 59°20' E 018°05'0 0.0
2017-Apr-24 00:59N 59°20' E 018°05'0 0.0
2017-Apr-24 00:29N 59°20' E 018°05'0 0.0
2017-Apr-23 23:59N 59°20' E 018°05'0 0.0
2017-Apr-23 23:29N 59°20' E 018°05'0 0.0
2017-Apr-23 22:59N 59°20' E 018°05'0 0.0
2017-Apr-23 22:29N 59°20' E 018°05'0 0.0
2017-Apr-23 21:59N 59°20' E 018°05'0 0.0
2017-Apr-23 21:29N 59°20' E 018°05'0 0.0
2017-Apr-23 20:59N 59°20' E 018°05'0 0.0
2017-Apr-23 20:29N 59°20' E 018°05'0 0.0
2017-Apr-23 19:59N 59°20' E 018°05'0 0.0
2017-Apr-23 19:29N 59°20' E 018°05'0 0.0
2017-Apr-23 18:59N 59°20' E 018°05'0 0.0
2017-Apr-23 18:29N 59°20' E 018°05'0 0.0
2017-Apr-23 17:59N 59°20' E 018°05'0 0.0
2017-Apr-23 17:23N 59°20' E 018°05'0 0.0
2017-Apr-23 16:59N 59°20' E 018°05'0 0.0
2017-Apr-23 16:23N 59°20' E 018°05'0 0.0
2017-Apr-23 15:59N 59°20' E 018°05'0 0.0
2017-Apr-23 15:29N 59°20' E 018°05'1 2.8
2017-Apr-23 15:00N 59°19' E 018°07'2 3.5
2017-Apr-23 14:30N 59°21' E 018°09'2 2.3
2017-Apr-23 13:29N 59°20' E 018°05'2 4.2
2017-Apr-23 13:00N 59°19' E 018°08'2 3.9
2017-Apr-23 12:29N 59°20' E 018°05'2 3.7
2017-Apr-23 12:00N 59°19' E 018°07'2 3.5
2017-Apr-23 11:29N 59°21' E 018°09'2 3.8
2017-Apr-23 11:00N 59°19' E 018°07'2 3.3
2017-Apr-23 10:29N 59°20' E 018°05'0 0.0
2017-Apr-23 09:59N 59°20' E 018°05'2 3.7
2017-Apr-23 09:30N 59°19' E 018°07'1 2.3
2017-Apr-23 09:00N 59°20' E 018°05'1 1.6
2017-Apr-23 08:30N 59°19' E 018°07'2 3.7
2017-Apr-23 08:00N 59°21' E 018°09'2 3.1
2017-Apr-23 07:30N 59°19' E 018°08'2 3.4
2017-Apr-23 06:58N 59°20' E 018°05'0 0.0
2017-Apr-23 06:25N 59°20' E 018°05'0 0.0
2017-Apr-23 05:58N 59°20' E 018°05'0 0.0
2017-Apr-23 05:19N 59°20' E 018°05'0 0.0
2017-Apr-23 04:49N 59°20' E 018°05'0 0.0
2017-Apr-23 04:25N 59°20' E 018°05'0 0.0
2017-Apr-23 03:55N 59°20' E 018°05'0 0.0
2017-Apr-23 03:28N 59°20' E 018°05'0 0.0
2017-Apr-23 02:58N 59°20' E 018°05'0 0.0
2017-Apr-23 02:25N 59°20' E 018°05'0 0.0
2017-Apr-23 01:55N 59°20' E 018°05'0 0.0
2017-Apr-23 01:28N 59°20' E 018°05'0 0.0
2017-Apr-23 00:58N 59°20' E 018°05'0 0.0
2017-Apr-23 00:28N 59°20' E 018°05'0 0.0
2017-Apr-22 23:58N 59°20' E 018°05'0 0.0
2017-Apr-22 23:25N 59°20' E 018°05'0 0.0
2017-Apr-22 22:58N 59°20' E 018°05'0 0.0
2017-Apr-22 22:28N 59°20' E 018°05'0 0.0
2017-Apr-22 22:00N 59°20' E 018°05'0 0.0
2017-Apr-22 21:28N 59°20' E 018°05'0 0.0
2017-Apr-22 20:58N 59°20' E 018°05'0 0.0
2017-Apr-22 20:28N 59°20' E 018°05'0 0.0
2017-Apr-22 19:58N 59°20' E 018°05'0 0.0
2017-Apr-22 19:28N 59°20' E 018°05'0 0.0
2017-Apr-22 18:58N 59°20' E 018°05'0 0.0
2017-Apr-22 18:25N 59°20' E 018°05'0 0.1
2017-Apr-22 15:05N 59°19' E 018°06'1 7.7
2017-Apr-22 15:00N 59°19' E 018°07'2 3.5
2017-Apr-22 14:27N 59°21' E 018°09'2 2.5
2017-Apr-22 13:30N 59°20' E 018°05'2 4.0
2017-Apr-22 13:00N 59°19' E 018°08'2 3.8
2017-Apr-22 12:28N 59°20' E 018°05'2 3.7
2017-Apr-22 12:00N 59°19' E 018°07'2 3.4
2017-Apr-22 11:29N 59°21' E 018°09'2 3.7
2017-Apr-22 11:00N 59°19' E 018°08'2 3.4
2017-Apr-22 10:30N 59°20' E 018°05'0 0.0
2017-Apr-22 10:00N 59°20' E 018°05'2 3.5
2017-Apr-22 09:30N 59°19' E 018°07'1 2.4
2017-Apr-22 09:00N 59°20' E 018°05'1 2.1
2017-Apr-22 08:30N 59°19' E 018°07'2 3.2
2017-Apr-22 07:57N 59°21' E 018°09'2 3.4
2017-Apr-22 07:30N 59°19' E 018°08'2 3.6
2017-Apr-22 06:58N 59°20' E 018°05'0 0.0
2017-Apr-22 06:16N 59°20' E 018°05'0 0.0
2017-Apr-22 03:28N 59°20' E 018°05'0 0.0
2017-Apr-22 02:55N 59°20' E 018°05'0 0.0
2017-Apr-22 02:28N 59°20' E 018°05'0 0.0
2017-Apr-22 01:58N 59°20' E 018°05'0 0.0
2017-Apr-22 01:28N 59°20' E 018°05'0 0.0
2017-Apr-22 00:58N 59°20' E 018°05'0 0.0
2017-Apr-22 00:28N 59°20' E 018°05'0 0.0
2017-Apr-21 23:58N 59°20' E 018°05'0 0.0
2017-Apr-21 23:28N 59°20' E 018°05'0 0.0
2017-Apr-21 22:58N 59°20' E 018°05'0 0.0
2017-Apr-21 22:28N 59°20' E 018°05'0 0.0
2017-Apr-21 21:58N 59°20' E 018°05'0 0.0
2017-Apr-21 21:28N 59°20' E 018°05'0 0.0
2017-Apr-21 20:58N 59°20' E 018°05'0 0.0
2017-Apr-21 20:28N 59°20' E 018°05'0 0.0
2017-Apr-21 19:58N 59°20' E 018°05'0 0.0
2017-Apr-21 19:28N 59°20' E 018°05'2 3.5
2017-Apr-21 19:00N 59°19' E 018°08'1 2.1
2017-Apr-21 18:30N 59°19' E 018°06'0 0.6
2017-Apr-21 18:00N 59°20' E 018°05'1 2.4
2017-Apr-21 17:25N 59°19' E 018°08'2 3.3
2017-Apr-21 16:50N 59°20' E 018°05'2 4.8
2017-Apr-21 16:21N 59°19' E 018°09'1 0.8
2017-Apr-21 15:20N 59°19' E 018°07'2 3.7
2017-Apr-21 14:52N 59°20' E 018°05'2 4.4
2017-Apr-21 14:29N 59°19' E 018°07'1 0.7
2017-Apr-21 13:30N 59°19' E 018°09'2 4.6
2017-Apr-21 13:00N 59°20' E 018°05'0 0.4
2017-Apr-21 12:28N 59°20' E 018°05'0 0.0
2017-Apr-21 11:58N 59°20' E 018°05'0 0.0
2017-Apr-21 11:28N 59°20' E 018°05'0 0.0
2017-Apr-21 10:58N 59°20' E 018°05'0 0.0
2017-Apr-21 10:28N 59°20' E 018°05'0 0.0
2017-Apr-21 09:58N 59°20' E 018°05'0 0.0
2017-Apr-21 09:28N 59°20' E 018°05'0 0.0
2017-Apr-21 08:58N 59°20' E 018°05'0 1.1
2017-Apr-21 08:30N 59°19' E 018°06'2 3.1
2017-Apr-21 07:51N 59°20' E 018°09'0 1.0
2017-Apr-21 07:30N 59°20' E 018°09'2 4.0
2017-Apr-21 07:00N 59°19' E 018°06'0 0.3
2017-Apr-21 06:30N 59°19' E 018°06'2 3.6
2017-Apr-21 06:00N 59°20' E 018°10'0 0.3
2017-Apr-21 05:30N 59°20' E 018°10'2 3.5
2017-Apr-21 05:00N 59°19' E 018°06'0 0.8
2017-Apr-21 04:30N 59°19' E 018°06'0 0.3
2017-Apr-21 04:00N 59°19' E 018°06'0 0.6
2017-Apr-21 03:16N 59°20' E 018°05'0 0.0
2017-Apr-21 02:46N 59°20' E 018°05'0 0.0
2017-Apr-21 02:28N 59°20' E 018°05'0 0.0
2017-Apr-21 01:58N 59°20' E 018°05'0 0.0
2017-Apr-21 01:28N 59°20' E 018°05'0 0.0
2017-Apr-21 00:58N 59°20' E 018°05'0 0.0
2017-Apr-21 00:28N 59°20' E 018°05'0 0.0
2017-Apr-20 23:58N 59°20' E 018°05'0 0.0
2017-Apr-20 23:28N 59°20' E 018°05'0 0.0
2017-Apr-20 22:58N 59°20' E 018°05'0 0.0
2017-Apr-20 22:28N 59°20' E 018°05'0 0.0
2017-Apr-20 21:58N 59°20' E 018°05'0 0.0
2017-Apr-20 21:28N 59°20' E 018°05'0 0.0
2017-Apr-20 20:58N 59°20' E 018°05'0 0.0
2017-Apr-20 20:28N 59°20' E 018°05'0 0.0
2017-Apr-20 19:58N 59°20' E 018°05'0 0.0
2017-Apr-20 19:28N 59°20' E 018°05'0 0.0
2017-Apr-20 18:58N 59°20' E 018°05'0 0.0
2017-Apr-20 18:28N 59°20' E 018°05'0 0.0
2017-Apr-20 17:16N 59°20' E 018°05'0 0.0
2017-Apr-20 16:52N 59°20' E 018°05'1 2.6
2017-Apr-20 16:31N 59°19' E 018°06'0 0.6
2017-Apr-20 15:48N 59°19' E 018°06'0 1.0
2017-Apr-20 15:26N 59°19' E 018°06'2 4.1
2017-Apr-20 14:59N 59°19' E 018°10'1 1.3
2017-Apr-20 14:00N 59°19' E 018°07'1 2.7
2017-Apr-20 13:30N 59°20' E 018°05'0 0.0
2017-Apr-20 13:00N 59°20' E 018°05'0 0.0
2017-Apr-20 12:30N 59°20' E 018°05'0 0.0
2017-Apr-20 12:00N 59°20' E 018°05'0 0.0
2017-Apr-20 11:30N 59°20' E 018°05'1 2.5
2017-Apr-20 11:00N 59°19' E 018°07'0 0.8
2017-Apr-20 10:30N 59°19' E 018°07'1 2.9
2017-Apr-20 10:00N 59°20' E 018°05'2 4.2
2017-Apr-20 09:30N 59°19' E 018°09'1 2.8
2017-Apr-20 09:00N 59°21' E 018°09'2 3.5
2017-Apr-20 08:30N 59°19' E 018°07'2 3.4
2017-Apr-20 08:00N 59°20' E 018°05'2 3.2
2017-Apr-20 07:30N 59°19' E 018°07'2 3.5
2017-Apr-20 07:00N 59°21' E 018°09'2 3.1
2017-Apr-20 06:29N 59°19' E 018°10'3 5.5
2017-Apr-20 06:00N 59°20' E 018°05'2 4.1
2017-Apr-20 05:30N 59°19' E 018°08'2 3.3
2017-Apr-20 05:00N 59°21' E 018°08'  
Track history (hours):
 
Tides and Currents Weather Stations Pressure Air Temp Water Temp Dewpoint Dewpoint Depression Visibility Wind Speed Wind Dir Waves Ship Positions

Gurli

Last reported at 2017-Apr-30 04:58 UTC. Time now 2017-Apr-30 05:19 UTC.
Position N 59°20' E 018°05'.

Length 21 m.

Type: Passenger vessel. MMSI: 265687640.

Date/timePositionNaut miles runAvg speedWind from/ knotsBaromVisibWave heightAir tempDewpointWater temp
2017-Apr-30 04:58N 59°20' E 018°05'0 0.0
2017-Apr-30 04:28N 59°20' E 018°05'0 0.0
2017-Apr-30 03:58N 59°20' E 018°05'0 0.0
2017-Apr-30 03:28N 59°20' E 018°05'0 0.0
2017-Apr-30 02:58N 59°20' E 018°05'0 0.0
2017-Apr-30 02:28N 59°20' E 018°05'0 0.0
2017-Apr-30 01:58N 59°20' E 018°05'0 0.0
2017-Apr-30 01:28N 59°20' E 018°05'0 0.0
2017-Apr-30 00:58N 59°20' E 018°05'0 0.0
2017-Apr-30 00:28N 59°20' E 018°05'0 0.0
2017-Apr-29 23:58N 59°20' E 018°05'0 0.0
2017-Apr-29 23:28N 59°20' E 018°05'0 0.0
2017-Apr-29 22:58N 59°20' E 018°05'0 0.0
2017-Apr-29 22:28N 59°20' E 018°05'0 0.0
2017-Apr-29 21:58N 59°20' E 018°05'0 0.0
2017-Apr-29 21:28N 59°20' E 018°05'0 0.0
2017-Apr-29 20:58N 59°20' E 018°05'0 0.0
2017-Apr-29 20:28N 59°20' E 018°05'0 0.0
2017-Apr-29 19:58N 59°20' E 018°05'0 0.0
2017-Apr-29 19:28N 59°20' E 018°05'0 0.0
2017-Apr-29 18:55N 59°20' E 018°05'0 0.0
2017-Apr-29 18:26N 59°20' E 018°05'0 0.0
2017-Apr-29 17:58N 59°20' E 018°05'0 0.0
2017-Apr-29 17:26N 59°20' E 018°05'0 0.0
2017-Apr-29 16:50N 59°20' E 018°05'0 0.0
2017-Apr-29 16:26N 59°20' E 018°05'0 0.0
2017-Apr-29 15:56N 59°20' E 018°05'0 0.0
2017-Apr-29 15:25N 59°20' E 018°05'1 2.9
2017-Apr-29 15:00N 59°19' E 018°07'2 3.7
2017-Apr-29 14:30N 59°21' E 018°09'2 2.4
2017-Apr-29 13:31N 59°20' E 018°05'2 4.0
2017-Apr-29 13:01N 59°19' E 018°08'2 3.9
2017-Apr-29 12:30N 59°20' E 018°05'2 3.6
2017-Apr-29 12:00N 59°19' E 018°08'2 3.5
2017-Apr-29 11:30N 59°21' E 018°09'2 3.5
2017-Apr-29 11:00N 59°19' E 018°08'2 3.5
2017-Apr-29 10:30N 59°20' E 018°05'0 0.4
2017-Apr-29 10:00N 59°20' E 018°05'2 3.1
2017-Apr-29 09:30N 59°19' E 018°07'1 2.4
2017-Apr-29 09:00N 59°20' E 018°05'1 2.0
2017-Apr-29 08:30N 59°19' E 018°07'2 3.4
2017-Apr-29 07:59N 59°21' E 018°09'2 3.5
2017-Apr-29 07:30N 59°19' E 018°08'2 3.6
2017-Apr-29 07:00N 59°20' E 018°05'0 0.3
2017-Apr-29 06:29N 59°20' E 018°05'0 0.0
2017-Apr-29 05:59N 59°20' E 018°05'0 0.0
2017-Apr-29 05:29N 59°20' E 018°05'0 0.0
2017-Apr-29 04:59N 59°20' E 018°05'0 0.0
2017-Apr-29 04:29N 59°20' E 018°05'0 0.0
2017-Apr-29 03:59N 59°20' E 018°05'0 0.0
2017-Apr-29 03:29N 59°20' E 018°05'0 0.0
2017-Apr-29 02:59N 59°20' E 018°05'0 0.0
2017-Apr-29 02:26N 59°20' E 018°05'0 0.0
2017-Apr-29 01:59N 59°20' E 018°05'0 0.0
2017-Apr-29 01:29N 59°20' E 018°05'0 0.0
2017-Apr-29 00:59N 59°20' E 018°05'0 0.0
2017-Apr-29 00:29N 59°20' E 018°05'0 0.0
2017-Apr-28 23:59N 59°20' E 018°05'0 0.0
2017-Apr-28 23:29N 59°20' E 018°05'0 0.0
2017-Apr-28 22:59N 59°20' E 018°05'0 0.0
2017-Apr-28 22:29N 59°20' E 018°05'0 0.0
2017-Apr-28 21:59N 59°20' E 018°05'0 0.0
2017-Apr-28 21:29N 59°20' E 018°05'0 0.0
2017-Apr-28 20:59N 59°20' E 018°05'0 0.0
2017-Apr-28 20:29N 59°20' E 018°05'0 0.0
2017-Apr-28 19:59N 59°20' E 018°05'0 0.2
2017-Apr-28 19:30N 59°20' E 018°05'2 3.8
2017-Apr-28 19:00N 59°19' E 018°08'1 2.6
2017-Apr-28 18:28N 59°19' E 018°06'0 0.9
2017-Apr-28 18:00N 59°19' E 018°06'1 2.3
2017-Apr-28 17:29N 59°19' E 018°08'2 4.2
2017-Apr-28 16:59N 59°20' E 018°05'2 3.9
2017-Apr-28 16:28N 59°19' E 018°08'2 3.4
2017-Apr-28 15:59N 59°21' E 018°08'2 3.1
2017-Apr-28 15:28N 59°19' E 018°08'2 4.1
2017-Apr-28 14:58N 59°20' E 018°05'2 2.4
2017-Apr-28 14:00N 59°21' E 018°09'1 2.9
2017-Apr-28 13:30N 59°19' E 018°09'2 4.4
2017-Apr-28 12:59N 59°20' E 018°05'0 0.5
2017-Apr-28 12:28N 59°20' E 018°05'0 0.0
2017-Apr-28 11:58N 59°20' E 018°05'0 0.0
2017-Apr-28 11:28N 59°20' E 018°05'1 2.7
2017-Apr-28 11:00N 59°19' E 018°07'0 0.6
2017-Apr-28 10:30N 59°19' E 018°07'2 3.1
2017-Apr-28 10:00N 59°20' E 018°05'2 4.5
2017-Apr-28 09:29N 59°19' E 018°09'1 3.1
2017-Apr-28 09:00N 59°21' E 018°09'2 3.5
2017-Apr-28 08:30N 59°19' E 018°07'2 3.4
2017-Apr-28 08:00N 59°20' E 018°05'2 3.2
2017-Apr-28 07:30N 59°19' E 018°07'2 3.5
2017-Apr-28 07:00N 59°21' E 018°09'2 3.1
2017-Apr-28 06:29N 59°19' E 018°10'3 5.3
2017-Apr-28 05:59N 59°20' E 018°05'3 5.3
2017-Apr-28 05:30N 59°19' E 018°09'1 2.9
2017-Apr-28 05:00N 59°21' E 018°09'2 3.6
2017-Apr-28 04:31N 59°19' E 018°07'2 2.9
2017-Apr-28 03:59N 59°20' E 018°05'0 0.1
2017-Apr-28 03:24N 59°20' E 018°05'0 0.0
2017-Apr-28 03:00N 59°20' E 018°05'0 0.0
2017-Apr-28 02:30N 59°20' E 018°05'0 0.0
2017-Apr-28 02:00N 59°20' E 018°05'0 0.0
2017-Apr-28 01:30N 59°20' E 018°05'0 0.0
2017-Apr-28 01:00N 59°20' E 018°05'0 0.0
2017-Apr-28 00:30N 59°20' E 018°05'0 0.0
2017-Apr-28 00:00N 59°20' E 018°05'0 0.0
2017-Apr-27 23:30N 59°20' E 018°05'0 0.0
2017-Apr-27 23:00N 59°20' E 018°05'0 0.0
2017-Apr-27 22:30N 59°20' E 018°05'0 0.0
2017-Apr-27 22:00N 59°20' E 018°05'0 0.0
2017-Apr-27 21:30N 59°20' E 018°05'0 0.0
2017-Apr-27 21:00N 59°20' E 018°05'0 0.0
2017-Apr-27 20:30N 59°20' E 018°05'0 0.0
2017-Apr-27 20:00N 59°20' E 018°05'0 0.0
2017-Apr-27 19:30N 59°20' E 018°05'2 3.8
2017-Apr-27 19:00N 59°19' E 018°08'1 2.6
2017-Apr-27 18:30N 59°19' E 018°06'0 0.2
2017-Apr-27 18:00N 59°19' E 018°06'1 2.6
2017-Apr-27 17:29N 59°19' E 018°09'2 4.5
2017-Apr-27 17:00N 59°20' E 018°05'2 4.0
2017-Apr-27 16:30N 59°19' E 018°08'2 3.2
2017-Apr-27 16:00N 59°21' E 018°08'2 3.1
2017-Apr-27 15:30N 59°19' E 018°09'2 4.5
2017-Apr-27 14:59N 59°20' E 018°05'2 2.4
2017-Apr-27 14:00N 59°21' E 018°09'1 2.9
2017-Apr-27 13:29N 59°19' E 018°09'2 4.9
2017-Apr-27 13:00N 59°20' E 018°05'0 0.5
2017-Apr-27 12:30N 59°20' E 018°05'0 0.0
2017-Apr-27 12:00N 59°20' E 018°05'0 0.0
2017-Apr-27 11:30N 59°20' E 018°05'2 3.1
2017-Apr-27 11:00N 59°19' E 018°07'0 0.5
2017-Apr-27 10:30N 59°19' E 018°07'1 2.4
2017-Apr-27 10:00N 59°20' E 018°05'2 4.2
2017-Apr-27 09:30N 59°19' E 018°09'1 2.9
2017-Apr-27 09:01N 59°21' E 018°08'2 3.5
2017-Apr-27 08:30N 59°19' E 018°07'2 3.3
2017-Apr-27 07:59N 59°20' E 018°05'2 3.6
2017-Apr-27 07:30N 59°19' E 018°07'2 3.4
2017-Apr-27 06:59N 59°21' E 018°08'2 3.2
2017-Apr-27 06:29N 59°19' E 018°09'3 5.0
2017-Apr-27 05:58N 59°20' E 018°05'2 5.0
2017-Apr-27 05:30N 59°19' E 018°09'2 3.1
2017-Apr-27 05:00N 59°21' E 018°09'2 3.3
2017-Apr-27 04:30N 59°19' E 018°08'2 3.1
2017-Apr-27 03:58N 59°20' E 018°05'0 0.0
2017-Apr-27 03:28N 59°20' E 018°05'0 0.0
2017-Apr-27 02:58N 59°20' E 018°05'0 0.0
2017-Apr-27 02:28N 59°20' E 018°05'0 0.0
2017-Apr-27 01:58N 59°20' E 018°05'0 0.0
2017-Apr-27 01:28N 59°20' E 018°05'0 0.0
2017-Apr-27 00:58N 59°20' E 018°05'0 0.0
2017-Apr-27 00:28N 59°20' E 018°05'0 0.0
2017-Apr-26 23:58N 59°20' E 018°05'0 0.0
2017-Apr-26 23:28N 59°20' E 018°05'0 0.0
2017-Apr-26 22:58N 59°20' E 018°05'0 0.0
2017-Apr-26 22:28N 59°20' E 018°05'0 0.0
2017-Apr-26 21:58N 59°20' E 018°05'0 0.0
2017-Apr-26 21:28N 59°20' E 018°05'0 0.0
2017-Apr-26 20:58N 59°20' E 018°05'0 0.0
2017-Apr-26 20:28N 59°20' E 018°05'0 0.0
2017-Apr-26 19:58N 59°20' E 018°05'0 0.0
2017-Apr-26 19:30N 59°20' E 018°05'2 3.7
2017-Apr-26 19:00N 59°19' E 018°08'1 2.4
2017-Apr-26 18:30N 59°19' E 018°06'0 0.1
2017-Apr-26 18:00N 59°19' E 018°06'2 3.5
2017-Apr-26 17:30N 59°19' E 018°09'2 4.6
2017-Apr-26 16:59N 59°20' E 018°05'2 3.7
2017-Apr-26 16:30N 59°19' E 018°08'2 3.3
2017-Apr-26 16:00N 59°21' E 018°08'2 3.0
2017-Apr-26 15:30N 59°19' E 018°09'2 3.8
2017-Apr-26 14:55N 59°20' E 018°05'2 3.7
2017-Apr-26 14:31N 59°19' E 018°07'1 1.1
2017-Apr-26 13:30N 59°19' E 018°09'2 4.7
2017-Apr-26 12:59N 59°20' E 018°05'0 0.5
2017-Apr-26 12:28N 59°20' E 018°05'0 0.0
2017-Apr-26 11:58N 59°20' E 018°05'0 0.0
2017-Apr-26 11:25N 59°20' E 018°05'0 0.0
2017-Apr-26 10:58N 59°20' E 018°05'0 0.0
2017-Apr-26 10:28N 59°20' E 018°05'0 0.0
2017-Apr-26 09:58N 59°20' E 018°05'0 0.0
2017-Apr-26 09:28N 59°20' E 018°05'0 0.0
2017-Apr-26 08:58N 59°20' E 018°05'0 0.0
2017-Apr-26 08:28N 59°20' E 018°05'0 0.0
2017-Apr-26 07:58N 59°20' E 018°05'0 0.1
2017-Apr-26 07:30N 59°20' E 018°05'2 3.0
2017-Apr-26 07:00N 59°19' E 018°07'2 3.4
2017-Apr-26 06:30N 59°21' E 018°08'2 3.4
2017-Apr-26 06:00N 59°19' E 018°09'3 5.2
2017-Apr-26 05:30N 59°20' E 018°05'2 4.2
2017-Apr-26 05:00N 59°19' E 018°08'2 4.1
2017-Apr-26 04:30N 59°20' E 018°05'0 0.4
2017-Apr-26 03:58N 59°20' E 018°05'0 0.0
2017-Apr-26 03:28N 59°20' E 018°05'0 0.0
2017-Apr-26 02:58N 59°20' E 018°05'0 0.0
2017-Apr-26 02:28N 59°20' E 018°05'0 0.0
2017-Apr-26 01:58N 59°20' E 018°05'0 0.0
2017-Apr-26 01:28N 59°20' E 018°05'0 0.0
2017-Apr-26 00:58N 59°20' E 018°05'0 0.0
2017-Apr-26 00:28N 59°20' E 018°05'0 0.0
2017-Apr-25 23:58N 59°20' E 018°05'0 0.0
2017-Apr-25 23:28N 59°20' E 018°05'0 0.0
2017-Apr-25 22:58N 59°20' E 018°05'0 0.0
2017-Apr-25 22:28N 59°20' E 018°05'0 0.0
2017-Apr-25 21:58N 59°20' E 018°05'0 0.0
2017-Apr-25 21:28N 59°20' E 018°05'0 0.0
2017-Apr-25 20:58N 59°20' E 018°05'0 0.0
2017-Apr-25 20:28N 59°20' E 018°05'0 0.0
2017-Apr-25 19:58N 59°20' E 018°05'0 0.0
2017-Apr-25 19:30N 59°20' E 018°05'2 3.4
2017-Apr-25 19:00N 59°19' E 018°08'1 2.1
2017-Apr-25 18:30N 59°19' E 018°06'0 0.5
2017-Apr-25 18:00N 59°19' E 018°06'2 3.7
2017-Apr-25 17:29N 59°19' E 018°09'2 5.2
2017-Apr-25 17:01N 59°20' E 018°05'2 3.6
2017-Apr-25 16:29N 59°19' E 018°08'2 3.4
2017-Apr-25 16:00N 59°21' E 018°08'2 3.2
2017-Apr-25 15:30N 59°19' E 018°09'2 4.2
2017-Apr-25 14:57N 59°20' E 018°05'2 2.5
2017-Apr-25 14:00N 59°21' E 018°09'1 2.9
2017-Apr-25 13:30N 59°19' E 018°09'2 4.6
2017-Apr-25 12:59N 59°20' E 018°05'0 0.5
2017-Apr-25 12:28N 59°20' E 018°05'0 0.0
2017-Apr-25 11:58N 59°20' E 018°05'0 0.0
2017-Apr-25 11:28N 59°20' E 018°05'1 2.7
2017-Apr-25 11:00N 59°19' E 018°07'0 0.7
2017-Apr-25 10:30N 59°19' E 018°07'2 3.5
2017-Apr-25 10:00N 59°20' E 018°05'2 4.3
2017-Apr-25 09:30N 59°19' E 018°09'2 3.1
2017-Apr-25 09:00N 59°21' E 018°08'2 3.5
2017-Apr-25 08:30N 59°19' E 018°07'2 3.3
2017-Apr-25 07:59N 59°20' E 018°05'2 3.5
2017-Apr-25 07:30N 59°19' E 018°07'2 3.4
2017-Apr-25 07:00N 59°21' E 018°09'2 3.1
2017-Apr-25 06:30N 59°19' E 018°10'3 5.3
2017-Apr-25 06:00N 59°20' E 018°05'2 4.2
2017-Apr-25 05:30N 59°19' E 018°08'2 3.0
2017-Apr-25 04:59N 59°21' E 018°09'2 3.2
2017-Apr-25 04:29N 59°19' E 018°08'2 3.6
2017-Apr-25 04:00N 59°20' E 018°05'0 0.0
2017-Apr-25 03:29N 59°20' E 018°05'0 0.0
2017-Apr-25 02:59N 59°20' E 018°05'0 0.0
2017-Apr-25 02:29N 59°20' E 018°05'0 0.0
2017-Apr-25 01:58N 59°20' E 018°05'0 0.0
2017-Apr-25 01:29N 59°20' E 018°05'0 0.0
2017-Apr-25 00:59N 59°20' E 018°05'0 0.0
2017-Apr-25 00:28N 59°20' E 018°05'0 0.0
2017-Apr-24 23:59N 59°20' E 018°05'0 0.0
2017-Apr-24 23:29N 59°20' E 018°05'0 0.0
2017-Apr-24 22:58N 59°20' E 018°05'0 0.0
2017-Apr-24 22:29N 59°20' E 018°05'0 0.0
2017-Apr-24 21:58N 59°20' E 018°05'0 0.0
2017-Apr-24 21:29N 59°20' E 018°05'0 0.0
2017-Apr-24 20:59N 59°20' E 018°05'0 0.0
2017-Apr-24 20:28N 59°20' E 018°05'0 0.0
2017-Apr-24 19:59N 59°20' E 018°05'0 0.0
2017-Apr-24 19:30N 59°20' E 018°05'2 3.2
2017-Apr-24 18:59N 59°19' E 018°08'1 2.0
2017-Apr-24 18:30N 59°19' E 018°06'0 0.6
2017-Apr-24 17:58N 59°19' E 018°06'2 3.6
2017-Apr-24 17:29N 59°19' E 018°09'2 4.4
2017-Apr-24 16:56N 59°20' E 018°05'2 3.9
2017-Apr-24 16:30N 59°19' E 018°07'2 3.5
2017-Apr-24 15:59N 59°21' E 018°08'2 3.4
2017-Apr-24 15:30N 59°19' E 018°09'2 4.4
2017-Apr-24 14:59N 59°20' E 018°05'2 3.2
2017-Apr-24 14:29N 59°19' E 018°07'1 1.1
2017-Apr-24 13:30N 59°19' E 018°09'3 4.9
2017-Apr-24 12:59N 59°20' E 018°05'0 0.5
2017-Apr-24 12:29N 59°20' E 018°05'0 0.0
2017-Apr-24 11:59N 59°20' E 018°05'0 0.0
2017-Apr-24 11:29N 59°20' E 018°05'1 2.7
2017-Apr-24 11:00N 59°19' E 018°07'0 0.6
2017-Apr-24 10:30N 59°19' E 018°07'1 2.6
2017-Apr-24 10:00N 59°20' E 018°05'2 4.0
2017-Apr-24 09:30N 59°19' E 018°09'1 2.9
2017-Apr-24 09:00N 59°21' E 018°09'2 3.5
2017-Apr-24 08:30N 59°19' E 018°07'2 3.2
2017-Apr-24 07:58N 59°20' E 018°05'2 3.3
2017-Apr-24 07:31N 59°19' E 018°07'2 3.3
2017-Apr-24 07:00N 59°21' E 018°08'2 3.5
2017-Apr-24 06:30N 59°19' E 018°10'3 4.8
2017-Apr-24 05:57N 59°20' E 018°05'2 4.8
2017-Apr-24 05:30N 59°19' E 018°09'1 3.0
2017-Apr-24 05:00N 59°21' E 018°09'2 3.5
2017-Apr-24 04:30N 59°19' E 018°07'2 3.4
2017-Apr-24 04:00N 59°20' E 018°05'0 0.4
2017-Apr-24 03:29N 59°20' E 018°05'0 0.0
2017-Apr-24 02:59N 59°20' E 018°05'0 0.0
2017-Apr-24 02:29N 59°20' E 018°05'0 0.0
2017-Apr-24 01:59N 59°20' E 018°05'0 0.0
2017-Apr-24 01:29N 59°20' E 018°05'0 0.0
2017-Apr-24 00:59N 59°20' E 018°05'0 0.0
2017-Apr-24 00:29N 59°20' E 018°05'0 0.0
2017-Apr-23 23:59N 59°20' E 018°05'0 0.0
2017-Apr-23 23:29N 59°20' E 018°05'0 0.0
2017-Apr-23 22:59N 59°20' E 018°05'0 0.0
2017-Apr-23 22:29N 59°20' E 018°05'0 0.0
2017-Apr-23 21:59N 59°20' E 018°05'0 0.0
2017-Apr-23 21:29N 59°20' E 018°05'0 0.0
2017-Apr-23 20:59N 59°20' E 018°05'0 0.0
2017-Apr-23 20:29N 59°20' E 018°05'0 0.0
2017-Apr-23 19:59N 59°20' E 018°05'0 0.0
2017-Apr-23 19:29N 59°20' E 018°05'0 0.0
2017-Apr-23 18:59N 59°20' E 018°05'0 0.0
2017-Apr-23 18:29N 59°20' E 018°05'0 0.0
2017-Apr-23 17:59N 59°20' E 018°05'0 0.0
2017-Apr-23 17:23N 59°20' E 018°05'0 0.0
2017-Apr-23 16:59N 59°20' E 018°05'0 0.0
2017-Apr-23 16:23N 59°20' E 018°05'0 0.0
2017-Apr-23 15:59N 59°20' E 018°05'0 0.0
2017-Apr-23 15:29N 59°20' E 018°05'1 2.8
2017-Apr-23 15:00N 59°19' E 018°07'2 3.5
2017-Apr-23 14:30N 59°21' E 018°09'2 2.3
2017-Apr-23 13:29N 59°20' E 018°05'2 4.2
2017-Apr-23 13:00N 59°19' E 018°08'2 3.9
2017-Apr-23 12:29N 59°20' E 018°05'2 3.7
2017-Apr-23 12:00N 59°19' E 018°07'2 3.5
2017-Apr-23 11:29N 59°21' E 018°09'2 3.8
2017-Apr-23 11:00N 59°19' E 018°07'2 3.3
2017-Apr-23 10:29N 59°20' E 018°05'0 0.0
2017-Apr-23 09:59N 59°20' E 018°05'2 3.7
2017-Apr-23 09:30N 59°19' E 018°07'1 2.3
2017-Apr-23 09:00N 59°20' E 018°05'1 1.6
2017-Apr-23 08:30N 59°19' E 018°07'2 3.7
2017-Apr-23 08:00N 59°21' E 018°09'2 3.1
2017-Apr-23 07:30N 59°19' E 018°08'2 3.4
2017-Apr-23 06:58N 59°20' E 018°05'0 0.0
2017-Apr-23 06:25N 59°20' E 018°05'0 0.0
2017-Apr-23 05:58N 59°20' E 018°05'0 0.0
2017-Apr-23 05:19N 59°20' E 018°05'0 0.0
2017-Apr-23 04:49N 59°20' E 018°05'0 0.0
2017-Apr-23 04:25N 59°20' E 018°05'0 0.0
2017-Apr-23 03:55N 59°20' E 018°05'0 0.0
2017-Apr-23 03:28N 59°20' E 018°05'0 0.0
2017-Apr-23 02:58N 59°20' E 018°05'0 0.0
2017-Apr-23 02:25N 59°20' E 018°05'0 0.0
2017-Apr-23 01:55N 59°20' E 018°05'0 0.0
2017-Apr-23 01:28N 59°20' E 018°05'0 0.0
2017-Apr-23 00:58N 59°20' E 018°05'0 0.0
2017-Apr-23 00:28N 59°20' E 018°05'0 0.0
2017-Apr-22 23:58N 59°20' E 018°05'0 0.0
2017-Apr-22 23:25N 59°20' E 018°05'0 0.0
2017-Apr-22 22:58N 59°20' E 018°05'0 0.0
2017-Apr-22 22:28N 59°20' E 018°05'0 0.0
2017-Apr-22 22:00N 59°20' E 018°05'0 0.0
2017-Apr-22 21:28N 59°20' E 018°05'0 0.0
2017-Apr-22 20:58N 59°20' E 018°05'0 0.0
2017-Apr-22 20:28N 59°20' E 018°05'0 0.0
2017-Apr-22 19:58N 59°20' E 018°05'0 0.0
2017-Apr-22 19:28N 59°20' E 018°05'0 0.0
2017-Apr-22 18:58N 59°20' E 018°05'0 0.0
2017-Apr-22 18:25N 59°20' E 018°05'0 0.1
2017-Apr-22 15:05N 59°19' E 018°06'1 7.7
2017-Apr-22 15:00N 59°19' E 018°07'2 3.5
2017-Apr-22 14:27N 59°21' E 018°09'2 2.5
2017-Apr-22 13:30N 59°20' E 018°05'2 4.0
2017-Apr-22 13:00N 59°19' E 018°08'2 3.8
2017-Apr-22 12:28N 59°20' E 018°05'2 3.7
2017-Apr-22 12:00N 59°19' E 018°07'2 3.4
2017-Apr-22 11:29N 59°21' E 018°09'2 3.7
2017-Apr-22 11:00N 59°19' E 018°08'2 3.4
2017-Apr-22 10:30N 59°20' E 018°05'0 0.0
2017-Apr-22 10:00N 59°20' E 018°05'2 3.5
2017-Apr-22 09:30N 59°19' E 018°07'1 2.4
2017-Apr-22 09:00N 59°20' E 018°05'1 2.1
2017-Apr-22 08:30N 59°19' E 018°07'2 3.2
2017-Apr-22 07:57N 59°21' E 018°09'2 3.4
2017-Apr-22 07:30N 59°19' E 018°08'2 3.6
2017-Apr-22 06:58N 59°20' E 018°05'0 0.0
2017-Apr-22 06:16N 59°20' E 018°05'0 0.0
2017-Apr-22 03:28N 59°20' E 018°05'0 0.0
2017-Apr-22 02:55N 59°20' E 018°05'0 0.0
2017-Apr-22 02:28N 59°20' E 018°05'0 0.0
2017-Apr-22 01:58N 59°20' E 018°05'0 0.0
2017-Apr-22 01:28N 59°20' E 018°05'0 0.0
2017-Apr-22 00:58N 59°20' E 018°05'0 0.0
2017-Apr-22 00:28N 59°20' E 018°05'0 0.0
2017-Apr-21 23:58N 59°20' E 018°05'0 0.0
2017-Apr-21 23:28N 59°20' E 018°05'0 0.0
2017-Apr-21 22:58N 59°20' E 018°05'0 0.0
2017-Apr-21 22:28N 59°20' E 018°05'0 0.0
2017-Apr-21 21:58N 59°20' E 018°05'0 0.0
2017-Apr-21 21:28N 59°20' E 018°05'0 0.0
2017-Apr-21 20:58N 59°20' E 018°05'0 0.0
2017-Apr-21 20:28N 59°20' E 018°05'0 0.0
2017-Apr-21 19:58N 59°20' E 018°05'0 0.0
2017-Apr-21 19:28N 59°20' E 018°05'2 3.5
2017-Apr-21 19:00N 59°19' E 018°08'1 2.1
2017-Apr-21 18:30N 59°19' E 018°06'0 0.6
2017-Apr-21 18:00N 59°20' E 018°05'1 2.4
2017-Apr-21 17:25N 59°19' E 018°08'2 3.3
2017-Apr-21 16:50N 59°20' E 018°05'2 4.8
2017-Apr-21 16:21N 59°19' E 018°09'1 0.8
2017-Apr-21 15:20N 59°19' E 018°07'2 3.7
2017-Apr-21 14:52N 59°20' E 018°05'2 4.4
2017-Apr-21 14:29N 59°19' E 018°07'1 0.7
2017-Apr-21 13:30N 59°19' E 018°09'2 4.6
2017-Apr-21 13:00N 59°20' E 018°05'0 0.4
2017-Apr-21 12:28N 59°20' E 018°05'0 0.0
2017-Apr-21 11:58N 59°20' E 018°05'0 0.0
2017-Apr-21 11:28N 59°20' E 018°05'0 0.0
2017-Apr-21 10:58N 59°20' E 018°05'0 0.0
2017-Apr-21 10:28N 59°20' E 018°05'0 0.0
2017-Apr-21 09:58N 59°20' E 018°05'0 0.0
2017-Apr-21 09:28N 59°20' E 018°05'0 0.0
2017-Apr-21 08:58N 59°20' E 018°05'0 1.1
2017-Apr-21 08:30N 59°19' E 018°06'2 3.1
2017-Apr-21 07:51N 59°20' E 018°09'0 1.0
2017-Apr-21 07:30N 59°20' E 018°09'2 4.0
2017-Apr-21 07:00N 59°19' E 018°06'0 0.3
2017-Apr-21 06:30N 59°19' E 018°06'2 3.6
2017-Apr-21 06:00N 59°20' E 018°10'0 0.3
2017-Apr-21 05:30N 59°20' E 018°10'2 3.5
2017-Apr-21 05:00N 59°19' E 018°06'0 0.8
2017-Apr-21 04:30N 59°19' E 018°06'0 0.3
2017-Apr-21 04:00N 59°19' E 018°06'0 0.6
2017-Apr-21 03:16N 59°20' E 018°05'0 0.0
2017-Apr-21 02:46N 59°20' E 018°05'0 0.0
2017-Apr-21 02:28N 59°20' E 018°05'0 0.0
2017-Apr-21 01:58N 59°20' E 018°05'0 0.0
2017-Apr-21 01:28N 59°20' E 018°05'0 0.0
2017-Apr-21 00:58N 59°20' E 018°05'0 0.0
2017-Apr-21 00:28N 59°20' E 018°05'0 0.0
2017-Apr-20 23:58N 59°20' E 018°05'0 0.0
2017-Apr-20 23:28N 59°20' E 018°05'0 0.0
2017-Apr-20 22:58N 59°20' E 018°05'0 0.0
2017-Apr-20 22:28N 59°20' E 018°05'0 0.0
2017-Apr-20 21:58N 59°20' E 018°05'0 0.0
2017-Apr-20 21:28N 59°20' E 018°05'0 0.0
2017-Apr-20 20:58N 59°20' E 018°05'0 0.0
2017-Apr-20 20:28N 59°20' E 018°05'0 0.0
2017-Apr-20 19:58N 59°20' E 018°05'0 0.0
2017-Apr-20 19:28N 59°20' E 018°05'0 0.0
2017-Apr-20 18:58N 59°20' E 018°05'0 0.0
2017-Apr-20 18:28N 59°20' E 018°05'0 0.0
2017-Apr-20 17:16N 59°20' E 018°05'0 0.0
2017-Apr-20 16:52N 59°20' E 018°05'1 2.6
2017-Apr-20 16:31N 59°19' E 018°06'0 0.6
2017-Apr-20 15:48N 59°19' E 018°06'0 1.0
2017-Apr-20 15:26N 59°19' E 018°06'2 4.1
2017-Apr-20 14:59N 59°19' E 018°10'1 1.3
2017-Apr-20 14:00N 59°19' E 018°07'1 2.7
2017-Apr-20 13:30N 59°20' E 018°05'0 0.0
2017-Apr-20 13:00N 59°20' E 018°05'0 0.0
2017-Apr-20 12:30N 59°20' E 018°05'0 0.0
2017-Apr-20 12:00N 59°20' E 018°05'0 0.0
2017-Apr-20 11:30N 59°20' E 018°05'1 2.5
2017-Apr-20 11:00N 59°19' E 018°07'0 0.8
2017-Apr-20 10:30N 59°19' E 018°07'1 2.9
2017-Apr-20 10:00N 59°20' E 018°05'2 4.2
2017-Apr-20 09:30N 59°19' E 018°09'1 2.8
2017-Apr-20 09:00N 59°21' E 018°09'2 3.5
2017-Apr-20 08:30N 59°19' E 018°07'2 3.4
2017-Apr-20 08:00N 59°20' E 018°05'2 3.2
2017-Apr-20 07:30N 59°19' E 018°07'2 3.5
2017-Apr-20 07:00N 59°21' E 018°09'2 3.1
2017-Apr-20 06:29N 59°19' E 018°10'3 5.5
2017-Apr-20 06:00N 59°20' E 018°05'2 4.1
2017-Apr-20 05:30N 59°19' E 018°08'2 3.3
2017-Apr-20 05:00N 59°21' E 018°08'  

Dump ship's entire track history